sensor_id;sensor_type;location;lat;lon;timestamp;pressure;altitude;pressure_sealevel;temperature;humidity
69855;BME280;57146;48.140;16.304;2023-08-07T00:00:10;98527.94;;;14.44;67.42
69855;BME280;57146;48.140;16.304;2023-08-07T00:02:38;98519.41;;;14.50;67.31
69855;BME280;57146;48.140;16.304;2023-08-07T00:05:06;98509.66;;;14.54;66.57
69855;BME280;57146;48.140;16.304;2023-08-07T00:07:33;98512.00;;;14.56;66.43
69855;BME280;57146;48.140;16.304;2023-08-07T00:09:59;98525.56;;;14.54;66.94
69855;BME280;57146;48.140;16.304;2023-08-07T00:12:27;98509.25;;;14.52;67.03
69855;BME280;57146;48.140;16.304;2023-08-07T00:14:54;98514.19;;;14.54;66.52
69855;BME280;57146;48.140;16.304;2023-08-07T00:17:24;98508.50;;;14.52;66.72
69855;BME280;57146;48.140;16.304;2023-08-07T00:19:51;98523.16;;;14.49;67.01
69855;BME280;57146;48.140;16.304;2023-08-07T00:22:19;98516.09;;;14.53;66.64
69855;BME280;57146;48.140;16.304;2023-08-07T00:24:46;98519.41;;;14.50;66.64
69855;BME280;57146;48.140;16.304;2023-08-07T00:27:12;98526.59;;;14.50;67.04
69855;BME280;57146;48.140;16.304;2023-08-07T00:29:40;98547.00;;;14.49;66.64
69855;BME280;57146;48.140;16.304;2023-08-07T00:32:08;98532.97;;;14.49;66.67
69855;BME280;57146;48.140;16.304;2023-08-07T00:34:35;98543.25;;;14.50;66.94
69855;BME280;57146;48.140;16.304;2023-08-07T00:37:02;98544.25;;;14.46;67.51
69855;BME280;57146;48.140;16.304;2023-08-07T00:39:29;98545.69;;;14.43;67.95
69855;BME280;57146;48.140;16.304;2023-08-07T00:41:56;98556.88;;;14.36;67.71
69855;BME280;57146;48.140;16.304;2023-08-07T00:44:23;98547.84;;;14.37;68.24
69855;BME280;57146;48.140;16.304;2023-08-07T00:46:50;98557.72;;;14.41;67.27
69855;BME280;57146;48.140;16.304;2023-08-07T00:49:18;98562.34;;;14.44;66.76
69855;BME280;57146;48.140;16.304;2023-08-07T00:51:46;98571.41;;;14.43;67.30
69855;BME280;57146;48.140;16.304;2023-08-07T00:54:15;98563.56;;;14.46;66.91
69855;BME280;57146;48.140;16.304;2023-08-07T00:56:45;98557.81;;;14.44;66.78
69855;BME280;57146;48.140;16.304;2023-08-07T00:59:13;98563.13;;;14.44;67.11
69855;BME280;57146;48.140;16.304;2023-08-07T01:01:41;98551.84;;;14.47;66.59
69855;BME280;57146;48.140;16.304;2023-08-07T01:04:08;98569.22;;;14.45;66.83
69855;BME280;57146;48.140;16.304;2023-08-07T01:06:35;98574.16;;;14.46;66.59
69855;BME280;57146;48.140;16.304;2023-08-07T01:09:03;98585.84;;;14.45;66.39
69855;BME280;57146;48.140;16.304;2023-08-07T01:11:52;98578.59;;;14.42;66.34
69855;BME280;57146;48.140;16.304;2023-08-07T01:14:37;98584.22;;;14.41;66.52
69855;BME280;57146;48.140;16.304;2023-08-07T01:17:11;98567.31;;;14.45;66.33
69855;BME280;57146;48.140;16.304;2023-08-07T01:19:42;98580.88;;;14.44;66.83
69855;BME280;57146;48.140;16.304;2023-08-07T01:22:11;98575.09;;;14.38;66.99
69855;BME280;57146;48.140;16.304;2023-08-07T01:24:41;98570.47;;;14.35;67.23
69855;BME280;57146;48.140;16.304;2023-08-07T01:32:35;98573.28;;;14.42;66.18
69855;BME280;57146;48.140;16.304;2023-08-07T01:35:08;98592.50;;;14.39;66.70
69855;BME280;57146;48.140;16.304;2023-08-07T01:37:41;98593.94;;;14.36;66.43
69855;BME280;57146;48.140;16.304;2023-08-07T01:40:10;98583.44;;;14.40;66.01
69855;BME280;57146;48.140;16.304;2023-08-07T01:42:39;98579.28;;;14.39;66.07
69855;BME280;57146;48.140;16.304;2023-08-07T01:45:07;98606.44;;;14.36;66.70
69855;BME280;57146;48.140;16.304;2023-08-07T01:47:34;98587.97;;;14.40;65.78
69855;BME280;57146;48.140;16.304;2023-08-07T01:50:25;98597.38;;;14.37;66.00
69855;BME280;57146;48.140;16.304;2023-08-07T01:52:52;98600.38;;;14.35;66.39
69855;BME280;57146;48.140;16.304;2023-08-07T01:55:21;98596.50;;;14.33;66.80
69855;BME280;57146;48.140;16.304;2023-08-07T01:57:52;98593.88;;;14.33;65.92
69855;BME280;57146;48.140;16.304;2023-08-07T02:00:22;98591.66;;;14.35;66.27
69855;BME280;57146;48.140;16.304;2023-08-07T02:02:49;98580.38;;;14.38;65.40
69855;BME280;57146;48.140;16.304;2023-08-07T02:05:45;98590.88;;;14.34;65.90
69855;BME280;57146;48.140;16.304;2023-08-07T02:08:12;98593.53;;;14.34;65.54
69855;BME280;57146;48.140;16.304;2023-08-07T02:10:40;98604.44;;;14.33;65.64
69855;BME280;57146;48.140;16.304;2023-08-07T02:13:07;98596.88;;;14.31;66.37
69855;BME280;57146;48.140;16.304;2023-08-07T02:15:34;98600.72;;;14.34;64.88
69855;BME280;57146;48.140;16.304;2023-08-07T02:18:01;98618.13;;;14.35;65.60
69855;BME280;57146;48.140;16.304;2023-08-07T02:20:28;98605.22;;;14.33;65.71
69855;BME280;57146;48.140;16.304;2023-08-07T02:22:55;98603.00;;;14.35;64.85
69855;BME280;57146;48.140;16.304;2023-08-07T02:25:22;98610.19;;;14.35;64.99
69855;BME280;57146;48.140;16.304;2023-08-07T02:27:50;98616.59;;;14.34;64.88
69855;BME280;57146;48.140;16.304;2023-08-07T02:30:17;98590.81;;;14.31;66.09
69855;BME280;57146;48.140;16.304;2023-08-07T02:32:44;98611.03;;;14.23;65.38
69855;BME280;57146;48.140;16.304;2023-08-07T02:35:12;98608.03;;;14.25;65.08
69855;BME280;57146;48.140;16.304;2023-08-07T02:37:39;98602.31;;;14.23;65.26
69855;BME280;57146;48.140;16.304;2023-08-07T02:40:06;98594.03;;;14.24;65.77
69855;BME280;57146;48.140;16.304;2023-08-07T02:42:34;98593.28;;;14.24;65.10
69855;BME280;57146;48.140;16.304;2023-08-07T02:45:01;98595.91;;;14.24;65.02
69855;BME280;57146;48.140;16.304;2023-08-07T02:47:29;98590.09;;;14.18;65.17
69855;BME280;57146;48.140;16.304;2023-08-07T02:49:57;98595.16;;;14.23;64.34
69855;BME280;57146;48.140;16.304;2023-08-07T02:52:24;98570.53;;;14.23;65.17
69855;BME280;57146;48.140;16.304;2023-08-07T02:54:54;98567.72;;;14.16;65.25
69855;BME280;57146;48.140;16.304;2023-08-07T02:57:21;98586.94;;;14.12;64.80
69855;BME280;57146;48.140;16.304;2023-08-07T02:59:48;98595.97;;;14.11;64.56
69855;BME280;57146;48.140;16.304;2023-08-07T03:02:15;98575.16;;;14.10;64.80
69855;BME280;57146;48.140;16.304;2023-08-07T03:04:42;98584.97;;;14.09;64.64
69855;BME280;57146;48.140;16.304;2023-08-07T03:07:09;98580.00;;;14.08;64.55
69855;BME280;57146;48.140;16.304;2023-08-07T03:09:36;98585.63;;;14.06;64.87
69855;BME280;57146;48.140;16.304;2023-08-07T03:12:03;98586.84;;;14.09;63.99
69855;BME280;57146;48.140;16.304;2023-08-07T03:14:32;98587.25;;;14.11;63.85
69855;BME280;57146;48.140;16.304;2023-08-07T03:16:59;98587.19;;;14.07;64.17
69855;BME280;57146;48.140;16.304;2023-08-07T03:19:26;98576.09;;;14.02;64.63
69855;BME280;57146;48.140;16.304;2023-08-07T03:21:55;98561.72;;;14.03;64.57
69855;BME280;57146;48.140;16.304;2023-08-07T03:24:22;98569.13;;;13.97;65.36
69855;BME280;57146;48.140;16.304;2023-08-07T03:26:53;98578.78;;;13.89;65.22
69855;BME280;57146;48.140;16.304;2023-08-07T03:29:21;98578.09;;;13.93;65.29
69855;BME280;57146;48.140;16.304;2023-08-07T03:31:48;98566.31;;;13.90;65.06
69855;BME280;57146;48.140;16.304;2023-08-07T03:34:16;98579.88;;;13.88;65.52
69855;BME280;57146;48.140;16.304;2023-08-07T03:36:45;98576.03;;;13.86;65.41
69855;BME280;57146;48.140;16.304;2023-08-07T03:39:12;98580.66;;;13.89;65.35
69855;BME280;57146;48.140;16.304;2023-08-07T03:41:39;98564.00;;;13.88;65.37
69855;BME280;57146;48.140;16.304;2023-08-07T03:44:09;98569.50;;;13.96;64.87
69855;BME280;57146;48.140;16.304;2023-08-07T03:46:38;98570.25;;;13.96;64.85
69855;BME280;57146;48.140;16.304;2023-08-07T03:49:05;98580.47;;;13.98;64.79
69855;BME280;57146;48.140;16.304;2023-08-07T03:51:32;98576.00;;;13.98;65.51
69855;BME280;57146;48.140;16.304;2023-08-07T03:53:59;98564.28;;;13.99;65.12
69855;BME280;57146;48.140;16.304;2023-08-07T03:56:27;98559.66;;;13.96;64.99
69855;BME280;57146;48.140;16.304;2023-08-07T03:58:54;98577.16;;;14.01;64.94
69855;BME280;57146;48.140;16.304;2023-08-07T04:01:24;98561.88;;;13.94;65.16
69855;BME280;57146;48.140;16.304;2023-08-07T04:03:51;98561.00;;;13.90;65.86
69855;BME280;57146;48.140;16.304;2023-08-07T04:06:20;98565.97;;;13.92;65.63
69855;BME280;57146;48.140;16.304;2023-08-07T04:08:48;98577.75;;;13.94;65.25
69855;BME280;57146;48.140;16.304;2023-08-07T04:11:19;98566.94;;;13.99;64.66
69855;BME280;57146;48.140;16.304;2023-08-07T04:13:45;98552.94;;;13.99;64.82
69855;BME280;57146;48.140;16.304;2023-08-07T04:16:13;98568.91;;;14.02;65.00
69855;BME280;57146;48.140;16.304;2023-08-07T04:18:40;98556.09;;;14.04;64.88
69855;BME280;57146;48.140;16.304;2023-08-07T04:21:08;98556.34;;;13.99;65.48
69855;BME280;57146;48.140;16.304;2023-08-07T04:23:35;98547.66;;;13.99;64.98
69855;BME280;57146;48.140;16.304;2023-08-07T04:26:03;98537.97;;;13.90;65.31
69855;BME280;57146;48.140;16.304;2023-08-07T04:28:30;98539.53;;;13.92;65.06
69855;BME280;57146;48.140;16.304;2023-08-07T04:30:57;98542.84;;;13.88;65.26
69855;BME280;57146;48.140;16.304;2023-08-07T04:33:25;98542.09;;;13.88;65.44
69855;BME280;57146;48.140;16.304;2023-08-07T04:35:52;98521.59;;;13.85;65.20
69855;BME280;57146;48.140;16.304;2023-08-07T04:38:20;98542.75;;;13.85;65.24
69855;BME280;57146;48.140;16.304;2023-08-07T04:40:48;98546.06;;;13.82;65.65
69855;BME280;57146;48.140;16.304;2023-08-07T04:43:19;98532.09;;;13.81;66.09
69855;BME280;57146;48.140;16.304;2023-08-07T04:45:46;98535.84;;;13.80;65.53
69855;BME280;57146;48.140;16.304;2023-08-07T04:48:14;98528.66;;;13.81;65.46
69855;BME280;57146;48.140;16.304;2023-08-07T04:50:42;98530.56;;;13.80;65.61
69855;BME280;57146;48.140;16.304;2023-08-07T04:53:09;98543.34;;;13.78;66.02
69855;BME280;57146;48.140;16.304;2023-08-07T04:55:37;98525.59;;;13.79;65.67
69855;BME280;57146;48.140;16.304;2023-08-07T04:58:04;98543.25;;;13.75;65.90
69855;BME280;57146;48.140;16.304;2023-08-07T05:00:31;98540.50;;;13.71;65.74
69855;BME280;57146;48.140;16.304;2023-08-07T05:02:58;98547.41;;;13.76;65.71
69855;BME280;57146;48.140;16.304;2023-08-07T05:05:25;98552.97;;;13.71;65.49
69855;BME280;57146;48.140;16.304;2023-08-07T05:07:54;98548.69;;;13.66;65.61
69855;BME280;57146;48.140;16.304;2023-08-07T05:10:26;98541.44;;;13.63;65.54
69855;BME280;57146;48.140;16.304;2023-08-07T05:12:53;98551.13;;;13.59;65.91
69855;BME280;57146;48.140;16.304;2023-08-07T05:15:22;98553.44;;;13.60;65.01
69855;BME280;57146;48.140;16.304;2023-08-07T05:18:15;98560.59;;;13.60;64.70
69855;BME280;57146;48.140;16.304;2023-08-07T05:20:42;98551.81;;;13.56;64.64
69855;BME280;57146;48.140;16.304;2023-08-07T05:23:09;98561.69;;;13.59;64.33
69855;BME280;57146;48.140;16.304;2023-08-07T05:25:37;98565.78;;;13.56;64.14
69855;BME280;57146;48.140;16.304;2023-08-07T05:28:04;98583.97;;;13.58;63.60
69855;BME280;57146;48.140;16.304;2023-08-07T05:30:35;98579.88;;;13.60;63.22
69855;BME280;57146;48.140;16.304;2023-08-07T05:33:06;98590.56;;;13.64;63.54
69855;BME280;57146;48.140;16.304;2023-08-07T05:35:33;98585.81;;;13.70;62.41
69855;BME280;57146;48.140;16.304;2023-08-07T05:38:04;98592.09;;;13.65;63.42
69855;BME280;57146;48.140;16.304;2023-08-07T05:40:31;98594.41;;;13.67;63.45
69855;BME280;57146;48.140;16.304;2023-08-07T05:42:59;98597.47;;;13.69;63.17
69855;BME280;57146;48.140;16.304;2023-08-07T05:45:26;98598.94;;;13.66;63.29
69855;BME280;57146;48.140;16.304;2023-08-07T05:47:53;98592.28;;;13.72;62.14
69855;BME280;57146;48.140;16.304;2023-08-07T05:50:20;98596.03;;;13.71;62.66
69855;BME280;57146;48.140;16.304;2023-08-07T05:52:47;98602.09;;;13.72;62.43
69855;BME280;57146;48.140;16.304;2023-08-07T05:55:18;98620.28;;;13.73;62.65
69855;BME280;57146;48.140;16.304;2023-08-07T05:57:45;98626.56;;;13.69;63.17
69855;BME280;57146;48.140;16.304;2023-08-07T06:00:37;98634.41;;;13.65;62.75
69855;BME280;57146;48.140;16.304;2023-08-07T06:03:06;98624.84;;;13.60;62.99
69855;BME280;57146;48.140;16.304;2023-08-07T06:05:33;98635.22;;;13.53;63.42
69855;BME280;57146;48.140;16.304;2023-08-07T06:08:00;98647.56;;;13.49;64.32
69855;BME280;57146;48.140;16.304;2023-08-07T06:10:27;98644.03;;;13.45;64.38
69855;BME280;57146;48.140;16.304;2023-08-07T06:12:54;98643.03;;;13.50;64.63
69855;BME280;57146;48.140;16.304;2023-08-07T06:15:21;98664.09;;;13.46;64.76
69855;BME280;57146;48.140;16.304;2023-08-07T06:17:48;98631.81;;;13.40;63.55
69855;BME280;57146;48.140;16.304;2023-08-07T06:20:15;98655.19;;;13.38;64.06
69855;BME280;57146;48.140;16.304;2023-08-07T06:22:42;98638.09;;;13.36;64.22
69855;BME280;57146;48.140;16.304;2023-08-07T06:25:09;98627.53;;;13.36;63.80
69855;BME280;57146;48.140;16.304;2023-08-07T06:27:36;98633.16;;;13.34;64.65
69855;BME280;57146;48.140;16.304;2023-08-07T06:30:03;98642.94;;;13.34;64.47
69855;BME280;57146;48.140;16.304;2023-08-07T06:32:31;98626.88;;;13.39;63.53
69855;BME280;57146;48.140;16.304;2023-08-07T06:34:59;98608.13;;;13.44;63.18
69855;BME280;57146;48.140;16.304;2023-08-07T06:37:26;98597.75;;;13.51;63.00
69855;BME280;57146;48.140;16.304;2023-08-07T06:39:54;98620.56;;;13.56;62.21
69855;BME280;57146;48.140;16.304;2023-08-07T06:42:21;98608.53;;;13.58;62.47
69855;BME280;57146;48.140;16.304;2023-08-07T06:44:48;98609.28;;;13.59;61.94
69855;BME280;57146;48.140;16.304;2023-08-07T06:47:15;98595.75;;;13.60;62.26
69855;BME280;57146;48.140;16.304;2023-08-07T06:49:42;98594.97;;;13.60;62.04
69855;BME280;57146;48.140;16.304;2023-08-07T06:52:09;98605.56;;;13.60;62.23
69855;BME280;57146;48.140;16.304;2023-08-07T06:54:36;98602.56;;;13.61;62.13
69855;BME280;57146;48.140;16.304;2023-08-07T06:57:03;98625.69;;;13.64;62.17
69855;BME280;57146;48.140;16.304;2023-08-07T06:59:35;98606.31;;;13.60;61.44
69855;BME280;57146;48.140;16.304;2023-08-07T07:02:02;98575.47;;;13.64;61.67
69855;BME280;57146;48.140;16.304;2023-08-07T07:04:29;98609.44;;;13.50;61.95
69855;BME280;57146;48.140;16.304;2023-08-07T07:06:56;98593.81;;;13.45;61.93
69855;BME280;57146;48.140;16.304;2023-08-07T07:09:24;98601.75;;;13.45;62.19
69855;BME280;57146;48.140;16.304;2023-08-07T07:11:53;98625.09;;;13.43;62.53
69855;BME280;57146;48.140;16.304;2023-08-07T07:14:23;98599.41;;;13.44;62.48
69855;BME280;57146;48.140;16.304;2023-08-07T07:16:51;98592.16;;;13.40;62.57
69855;BME280;57146;48.140;16.304;2023-08-07T07:19:21;98611.00;;;13.39;63.16
69855;BME280;57146;48.140;16.304;2023-08-07T07:22:14;98622.69;;;13.38;63.24
69855;BME280;57146;48.140;16.304;2023-08-07T07:24:41;98601.84;;;13.36;63.22
69855;BME280;57146;48.140;16.304;2023-08-07T07:27:08;98628.97;;;13.33;63.59
69855;BME280;57146;48.140;16.304;2023-08-07T07:29:34;98634.91;;;13.30;63.42
69855;BME280;57146;48.140;16.304;2023-08-07T07:32:01;98637.22;;;13.32;63.71
69855;BME280;57146;48.140;16.304;2023-08-07T07:34:30;98627.44;;;13.32;63.07
69855;BME280;57146;48.140;16.304;2023-08-07T07:36:58;98653.50;;;13.34;63.19
69855;BME280;57146;48.140;16.304;2023-08-07T07:39:25;98638.09;;;13.36;63.15
69855;BME280;57146;48.140;16.304;2023-08-07T07:41:52;98661.56;;;13.37;63.42
69855;BME280;57146;48.140;16.304;2023-08-07T07:44:21;98668.41;;;13.38;63.56
69855;BME280;57146;48.140;16.304;2023-08-07T07:46:48;98669.28;;;13.43;63.49
69855;BME280;57146;48.140;16.304;2023-08-07T07:49:16;98678.31;;;13.41;63.50
69855;BME280;57146;48.140;16.304;2023-08-07T07:51:43;98675.97;;;13.40;63.22
69855;BME280;57146;48.140;16.304;2023-08-07T07:54:10;98676.84;;;13.44;63.17
69855;BME280;57146;48.140;16.304;2023-08-07T07:56:42;98684.56;;;13.49;63.52
69855;BME280;57146;48.140;16.304;2023-08-07T07:59:09;98709.25;;;13.53;63.26
69855;BME280;57146;48.140;16.304;2023-08-07T08:01:36;98692.28;;;13.54;62.72
69855;BME280;57146;48.140;16.304;2023-08-07T08:04:03;98698.00;;;13.56;63.60
69855;BME280;57146;48.140;16.304;2023-08-07T08:06:30;98700.88;;;13.63;64.05
69855;BME280;57146;48.140;16.304;2023-08-07T08:08:57;98714.09;;;13.63;64.51
69855;BME280;57146;48.140;16.304;2023-08-07T08:11:48;98714.50;;;13.65;65.18
69855;BME280;57146;48.140;16.304;2023-08-07T08:14:15;98727.31;;;13.63;64.46
69855;BME280;57146;48.140;16.304;2023-08-07T08:16:43;98736.56;;;13.57;64.71
69855;BME280;57146;48.140;16.304;2023-08-07T08:19:11;98743.38;;;13.58;64.63
69855;BME280;57146;48.140;16.304;2023-08-07T08:21:38;98744.38;;;13.54;64.88
69855;BME280;57146;48.140;16.304;2023-08-07T08:24:07;98739.56;;;13.56;65.48
69855;BME280;57146;48.140;16.304;2023-08-07T08:26:36;98747.91;;;13.58;65.59
69855;BME280;57146;48.140;16.304;2023-08-07T08:29:05;98735.91;;;13.60;66.18
69855;BME280;57146;48.140;16.304;2023-08-07T08:31:58;98749.13;;;13.60;66.13
69855;BME280;57146;48.140;16.304;2023-08-07T08:34:29;98763.22;;;13.64;66.21
69855;BME280;57146;48.140;16.304;2023-08-07T08:36:57;98751.00;;;13.60;66.03
69855;BME280;57146;48.140;16.304;2023-08-07T08:39:26;98760.38;;;13.70;67.19
69855;BME280;57146;48.140;16.304;2023-08-07T08:41:53;98750.22;;;13.72;66.53
69855;BME280;57146;48.140;16.304;2023-08-07T08:44:22;98753.72;;;13.88;65.71
69855;BME280;57146;48.140;16.304;2023-08-07T08:46:49;98780.91;;;14.01;64.98
69855;BME280;57146;48.140;16.304;2023-08-07T08:49:23;98770.13;;;13.94;64.91
69855;BME280;57146;48.140;16.304;2023-08-07T08:51:56;98777.09;;;13.98;65.20
69855;BME280;57146;48.140;16.304;2023-08-07T08:54:23;98793.72;;;13.99;65.34
69855;BME280;57146;48.140;16.304;2023-08-07T08:56:51;98810.16;;;13.92;65.27
69855;BME280;57146;48.140;16.304;2023-08-07T08:59:20;98801.13;;;13.81;65.79
69855;BME280;57146;48.140;16.304;2023-08-07T09:01:50;98835.31;;;13.74;65.98
69855;BME280;57146;48.140;16.304;2023-08-07T09:04:18;98819.88;;;13.63;66.20
69855;BME280;57146;48.140;16.304;2023-08-07T09:06:47;98825.91;;;13.52;66.28
69855;BME280;57146;48.140;16.304;2023-08-07T09:09:16;98819.19;;;13.42;67.43
69855;BME280;57146;48.140;16.304;2023-08-07T09:11:45;98832.84;;;13.32;67.42
69855;BME280;57146;48.140;16.304;2023-08-07T09:14:17;98830.38;;;13.27;67.93
69855;BME280;57146;48.140;16.304;2023-08-07T09:16:48;98832.59;;;13.25;68.75
69855;BME280;57146;48.140;16.304;2023-08-07T09:19:15;98838.50;;;13.22;68.31
69855;BME280;57146;48.140;16.304;2023-08-07T09:21:42;98833.44;;;13.16;68.93
69855;BME280;57146;48.140;16.304;2023-08-07T09:24:09;98856.75;;;13.14;69.43
69855;BME280;57146;48.140;16.304;2023-08-07T09:26:37;98851.69;;;13.09;70.42
69855;BME280;57146;48.140;16.304;2023-08-07T09:29:07;98861.47;;;13.09;70.81
69855;BME280;57146;48.140;16.304;2023-08-07T09:31:43;98863.81;;;13.10;70.39
69855;BME280;57146;48.140;16.304;2023-08-07T09:34:10;98858.94;;;13.12;70.77
69855;BME280;57146;48.140;16.304;2023-08-07T09:36:37;98857.09;;;13.13;70.96
69855;BME280;57146;48.140;16.304;2023-08-07T09:39:04;98855.00;;;13.06;71.65
69855;BME280;57146;48.140;16.304;2023-08-07T09:41:31;98874.56;;;13.05;71.98
69855;BME280;57146;48.140;16.304;2023-08-07T09:44:06;98869.25;;;12.93;71.41
69855;BME280;57146;48.140;16.304;2023-08-07T09:46:41;98878.31;;;13.04;71.09
69855;BME280;57146;48.140;16.304;2023-08-07T09:49:08;98874.66;;;12.97;71.43
69855;BME280;57146;48.140;16.304;2023-08-07T09:51:43;98856.81;;;12.93;72.06
69855;BME280;57146;48.140;16.304;2023-08-07T09:54:10;98877.50;;;12.91;72.46
69855;BME280;57146;48.140;16.304;2023-08-07T09:56:39;98860.09;;;12.90;73.37
69855;BME280;57146;48.140;16.304;2023-08-07T09:59:07;98881.88;;;12.87;74.40
69855;BME280;57146;48.140;16.304;2023-08-07T10:01:37;98882.53;;;12.84;73.79
69855;BME280;57146;48.140;16.304;2023-08-07T10:04:06;98857.31;;;12.87;73.31
69855;BME280;57146;48.140;16.304;2023-08-07T10:06:34;98867.78;;;12.83;74.16
69855;BME280;57146;48.140;16.304;2023-08-07T10:09:02;98878.78;;;12.85;74.33
69855;BME280;57146;48.140;16.304;2023-08-07T10:11:29;98877.25;;;12.84;74.56
69855;BME280;57146;48.140;16.304;2023-08-07T10:13:58;98898.06;;;12.86;75.07
69855;BME280;57146;48.140;16.304;2023-08-07T10:16:26;98892.13;;;12.89;75.65
69855;BME280;57146;48.140;16.304;2023-08-07T10:19:20;98887.81;;;12.84;75.32
69855;BME280;57146;48.140;16.304;2023-08-07T10:21:46;98902.09;;;12.83;74.99
69855;BME280;57146;48.140;16.304;2023-08-07T10:24:13;98885.31;;;12.88;76.13
69855;BME280;57146;48.140;16.304;2023-08-07T10:27:07;98899.16;;;12.85;75.19
69855;BME280;57146;48.140;16.304;2023-08-07T10:30:02;98901.41;;;12.74;76.97
69855;BME280;57146;48.140;16.304;2023-08-07T10:32:58;98907.34;;;12.71;76.69
69855;BME280;57146;48.140;16.304;2023-08-07T10:35:30;98886.50;;;12.69;77.19
69855;BME280;57146;48.140;16.304;2023-08-07T10:38:07;98899.94;;;12.64;78.19
69855;BME280;57146;48.140;16.304;2023-08-07T10:43:56;98920.53;;;12.50;79.02
69855;BME280;57146;48.140;16.304;2023-08-07T10:46:24;98892.31;;;12.42;77.79
69855;BME280;57146;48.140;16.304;2023-08-07T10:48:55;98918.72;;;12.42;78.19
69855;BME280;57146;48.140;16.304;2023-08-07T10:51:46;98910.34;;;12.40;79.19
69855;BME280;57146;48.140;16.304;2023-08-07T10:54:14;98902.28;;;12.36;78.87
69855;BME280;57146;48.140;16.304;2023-08-07T10:56:52;98901.81;;;12.34;79.91
69855;BME280;57146;48.140;16.304;2023-08-07T10:59:22;98918.75;;;12.33;80.83
69855;BME280;57146;48.140;16.304;2023-08-07T11:01:54;98918.31;;;12.31;80.90
69855;BME280;57146;48.140;16.304;2023-08-07T11:04:22;98914.09;;;12.30;81.53
69855;BME280;57146;48.140;16.304;2023-08-07T11:06:49;98931.81;;;12.30;81.42
69855;BME280;57146;48.140;16.304;2023-08-07T11:09:17;98920.47;;;12.29;81.33
69855;BME280;57146;48.140;16.304;2023-08-07T11:12:34;98915.06;;;12.26;81.53
69855;BME280;57146;48.140;16.304;2023-08-07T11:15:03;98919.09;;;12.23;81.49
69855;BME280;57146;48.140;16.304;2023-08-07T11:17:30;98926.72;;;12.25;82.13
69855;BME280;57146;48.140;16.304;2023-08-07T11:19:57;98918.94;;;12.28;81.70
69855;BME280;57146;48.140;16.304;2023-08-07T11:22:26;98910.69;;;12.30;81.77
69855;BME280;57146;48.140;16.304;2023-08-07T11:24:53;98922.03;;;12.30;81.21
69855;BME280;57146;48.140;16.304;2023-08-07T11:27:21;98922.78;;;12.31;81.26
69855;BME280;57146;48.140;16.304;2023-08-07T11:29:51;98943.13;;;12.30;81.23
69855;BME280;57146;48.140;16.304;2023-08-07T11:32:20;98935.06;;;12.35;81.88
69855;BME280;57146;48.140;16.304;2023-08-07T11:34:49;98928.19;;;12.43;81.70
69855;BME280;57146;48.140;16.304;2023-08-07T11:37:18;98939.97;;;12.45;81.44
69855;BME280;57146;48.140;16.304;2023-08-07T11:39:45;98938.66;;;12.52;80.29
69855;BME280;57146;48.140;16.304;2023-08-07T11:42:13;98934.16;;;12.52;80.96
69855;BME280;57146;48.140;16.304;2023-08-07T11:45:06;98930.44;;;12.53;80.19
69855;BME280;57146;48.140;16.304;2023-08-07T11:47:34;98932.75;;;12.55;81.37
69855;BME280;57146;48.140;16.304;2023-08-07T11:50:01;98935.09;;;12.56;79.93
69855;BME280;57146;48.140;16.304;2023-08-07T11:52:28;98941.00;;;12.53;80.89
69855;BME280;57146;48.140;16.304;2023-08-07T11:54:55;98939.13;;;12.54;80.40
69855;BME280;57146;48.140;16.304;2023-08-07T11:57:22;98905.59;;;12.54;80.36
69855;BME280;57146;48.140;16.304;2023-08-07T11:59:50;98946.72;;;12.55;80.79
69855;BME280;57146;48.140;16.304;2023-08-07T12:02:24;98950.78;;;12.53;80.49
69855;BME280;57146;48.140;16.304;2023-08-07T12:04:57;98957.16;;;12.52;80.32
69855;BME280;57146;48.140;16.304;2023-08-07T12:07:25;98960.88;;;12.51;80.71
69855;BME280;57146;48.140;16.304;2023-08-07T12:09:52;98960.56;;;12.52;81.44
69855;BME280;57146;48.140;16.304;2023-08-07T12:12:19;98962.44;;;12.52;81.53
69855;BME280;57146;48.140;16.304;2023-08-07T12:14:52;98960.88;;;12.51;81.61
69855;BME280;57146;48.140;16.304;2023-08-07T12:17:21;98974.84;;;12.51;82.95
69855;BME280;57146;48.140;16.304;2023-08-07T12:19:50;98974.22;;;12.54;82.05
69855;BME280;57146;48.140;16.304;2023-08-07T12:22:19;98960.56;;;12.52;82.61
69855;BME280;57146;48.140;16.304;2023-08-07T12:24:46;98975.31;;;12.53;82.54
69855;BME280;57146;48.140;16.304;2023-08-07T12:27:14;98969.84;;;12.58;81.30
69855;BME280;57146;48.140;16.304;2023-08-07T12:29:41;98980.88;;;12.60;82.09
69855;BME280;57146;48.140;16.304;2023-08-07T12:32:08;98990.81;;;12.63;83.07
69855;BME280;57146;48.140;16.304;2023-08-07T12:34:34;98993.13;;;12.65;82.59
69855;BME280;57146;48.140;16.304;2023-08-07T12:37:46;98992.00;;;12.66;83.13
69855;BME280;57146;48.140;16.304;2023-08-07T12:40:18;99000.22;;;12.73;82.97
69855;BME280;57146;48.140;16.304;2023-08-07T12:42:47;98986.97;;;12.82;83.88
69855;BME280;57146;48.140;16.304;2023-08-07T12:45:14;98993.41;;;12.93;83.78
69855;BME280;57146;48.140;16.304;2023-08-07T12:47:45;99006.50;;;13.10;83.67
69855;BME280;57146;48.140;16.304;2023-08-07T12:50:12;98997.09;;;13.22;82.50
69855;BME280;57146;48.140;16.304;2023-08-07T12:52:39;98998.13;;;13.29;82.81
69855;BME280;57146;48.140;16.304;2023-08-07T12:55:07;99017.53;;;13.33;83.66
69855;BME280;57146;48.140;16.304;2023-08-07T12:57:34;99006.00;;;13.38;81.31
69855;BME280;57146;48.140;16.304;2023-08-07T13:00:00;99007.09;;;13.37;81.24
69855;BME280;57146;48.140;16.304;2023-08-07T13:02:28;99013.22;;;13.29;79.64
69855;BME280;57146;48.140;16.304;2023-08-07T13:04:55;99006.72;;;13.26;79.19
69855;BME280;57146;48.140;16.304;2023-08-07T13:07:23;99013.09;;;13.25;79.88
69855;BME280;57146;48.140;16.304;2023-08-07T13:09:50;99001.00;;;13.24;79.84